Monroeville, PA

1:10 PM EDT on July 01, 2015 (GMT -0400)
Monroeville | | Change Station
CLOSE
Current Station
Personal Weather Station
Location: Monroeville, PA
Elevation: 1001 ft
Nearby Weather Stations

Elev 1001 ft 40.41 °N, 79.81 °W | Updated 48 seconds ago

Overcast
Overcast
71.6 °F
Feels Like 73 °F
N
0.0
Wind Variable Wind from ENE
Gusts 0.0 mph

Today
High -- | Low -- °F
--% Chance of Precip.
Yesterday
High -- | Low -- °F
Precip. -- in
5:52 AM 8:53 PM
Full, 100% visible
Pressure 29.92 in
Visibility 9.0 miles
Clouds Scattered Clouds 2300 ft
Mostly Cloudy 3600 ft
Overcast 4900 ft
Heat Index 73 °F
Dew Point 64 °F
Humidity 77%
Rainfall 0.00 in
Snow Depth Not available.
UV 4 out of 12
Pollen 3.90 out of 12
Air Quality Not available.
Flu Activity Not available.
SPECI KAGC 011701Z 26007KT 230V300 9SM SCT023 BKN036 OVC049 21/14 A2992 RMK AO2 T02060139

More Conditions Fewer Conditions

Pressure 29.92 in
Visibility 9.0 miles
Clouds Scattered Clouds 2300 ft
Mostly Cloudy 3600 ft
Overcast 4900 ft
Heat Index 73 °F
Dew Point 64 °F
Humidity 77%
Rainfall 0.00 in
Snow Depth Not available.
UV 4 out of 12
Pollen 3.90 out of 12
Air Quality Not available.
Flu Activity Not available.
SPECI KAGC 011701Z 26007KT 230V300 9SM SCT023 BKN036 OVC049 21/14 A2992 RMK AO2 T02060139

More Conditions Fewer Conditions

10-Day Weather Forecast

×

Almanac

Astronomy

Jul. 01, 2015 Rise Set
Actual Time
Civil Twilight
Nautical Twilight
Astronomical Twilight
Moon
Length of Visible Light
Length of Day
Tomorrow will be .
, % of the Moon is Illuminated

Today's Extremes

State Highs State Lows

Community

WunderPhotos

Upload Photos

1,834,248 photos uploaded!

WunderBlogs® & News

Nearby

Air Quality

  Air Quality AQ Index Pollutant
Not available.

Snow Depth

Station Depth Elevation

Earthquake Activity

City Distance Mag. Time & Date
Minimum magnitude displayed is 2.5.

Coastal Water Temperatures

Place Temperature

Stations

Nearby Weather Stations

Station Location Temp. Windchill Dew Point Humidity Wind Precip. Elev Updated Type